Clearwater, Idaho
Current Conditions -  °F | °C
As of 1:55 AM on Sunday 23 Nov 2014 (Local Time) from KGIC Reporting Station
Overcast Overcast  
Wind Chill: 27°   Ceiling: 4500
Heat Index: 35°   Visibility: 10mi
Dew Point: 28°   Wind: 10mph
Humidity: 75%   Direction: 230°SW
Pressure: 30.13"   Gusts: 16mph
Location:  46.2989°N, 115.619°W
Report Text: KGIC 230955Z AUTO 23009G14KT 10SM OVC045 02/M02 A3013 RMK AO1 T00161024
Loading
Personal Weather Stations






























Interactive Weather Map New forecast layout! Learn more

10-Day Weather Forecast

Advertisements
Track Severe Weather on mobile